Terminal Aerodrome Forecast
Issued by NWS Columbia, SC

Home | Current Version | Previous Version | Text Only | Print | Product List | Glossary On
Versions: 1 2 3 4 5 6 7 8 9 10 11 12 13 14 15 16 17 18 19 20 21 22 23 24 25 26 27 28 29 30 31 32 33 34 35 36 37 38 39 40
000
FTAK31 PAJN 302300
TAFAGS
TAF
PAGS 302330Z 3100/3124 14005KT P6SM VCSH SCT040 BKN080
     FM310300 VRB03KT P6SM VCSH BKN100
     FM311000 00000KT P6SM BCFG SCT002 BKN100
     FM311700 VRB04KT P6SM SCT100
      AMD NOT SKED=

USA.gov is the U.S. government's official web portal to all federal, state and local government web resources and services.